sensor_id;sensor_type;location;lat;lon;timestamp;temperature;humidity
80216;DHT22;69532;37.974;23.708;2024-03-23T00:51:28;7.20;57.80
80216;DHT22;69532;37.974;23.708;2024-03-23T00:53:54;7.40;57.40
80216;DHT22;69532;37.974;23.708;2024-03-23T00:56:20;7.60;56.10
80216;DHT22;69532;37.974;23.708;2024-03-23T00:58:46;7.60;55.60
80216;DHT22;69532;37.974;23.708;2024-03-23T01:01:12;7.60;55.70
80216;DHT22;69532;37.974;23.708;2024-03-23T01:03:38;7.60;55.70
80216;DHT22;69532;37.974;23.708;2024-03-23T01:06:04;7.70;55.60
80216;DHT22;69532;37.974;23.708;2024-03-23T01:08:30;7.60;55.90
80216;DHT22;69532;37.974;23.708;2024-03-23T01:10:57;7.70;55.80
80216;DHT22;69532;37.974;23.708;2024-03-23T01:13:24;7.70;55.50
80216;DHT22;69532;37.974;23.708;2024-03-23T01:15:50;7.80;55.30
80216;DHT22;69532;37.974;23.708;2024-03-23T01:18:18;7.80;55.30
80216;DHT22;69532;37.974;23.708;2024-03-23T01:20:45;7.60;55.80
80216;DHT22;69532;37.974;23.708;2024-03-23T01:23:11;7.40;56.00
80216;DHT22;69532;37.974;23.708;2024-03-23T01:25:38;7.30;56.20
80216;DHT22;69532;37.974;23.708;2024-03-23T01:28:04;7.30;56.30
80216;DHT22;69532;37.974;23.708;2024-03-23T01:30:33;7.30;56.40
80216;DHT22;69532;37.974;23.708;2024-03-23T01:32:59;7.10;56.50
80216;DHT22;69532;37.974;23.708;2024-03-23T01:35:25;7.20;56.10
80216;DHT22;69532;37.974;23.708;2024-03-23T01:37:51;7.10;56.30
80216;DHT22;69532;37.974;23.708;2024-03-23T01:40:17;7.10;56.30
80216;DHT22;69532;37.974;23.708;2024-03-23T01:42:58;7.00;56.40
80216;DHT22;69532;37.974;23.708;2024-03-23T01:45:24;6.90;56.60
80216;DHT22;69532;37.974;23.708;2024-03-23T01:47:53;6.80;57.20
80216;DHT22;69532;37.974;23.708;2024-03-23T01:50:20;6.90;57.20
80216;DHT22;69532;37.974;23.708;2024-03-23T01:52:47;6.90;57.20
80216;DHT22;69532;37.974;23.708;2024-03-23T01:55:14;6.90;57.60
80216;DHT22;69532;37.974;23.708;2024-03-23T01:57:40;6.70;58.10
80216;DHT22;69532;37.974;23.708;2024-03-23T02:00:07;6.50;59.00
80216;DHT22;69532;37.974;23.708;2024-03-23T02:02:33;6.50;59.00
80216;DHT22;69532;37.974;23.708;2024-03-23T02:04:59;6.40;59.30
80216;DHT22;69532;37.974;23.708;2024-03-23T02:07:25;6.50;59.70
80216;DHT22;69532;37.974;23.708;2024-03-23T02:09:52;6.40;59.30
80216;DHT22;69532;37.974;23.708;2024-03-23T02:12:19;6.40;59.40
80216;DHT22;69532;37.974;23.708;2024-03-23T02:14:45;6.40;59.40
80216;DHT22;69532;37.974;23.708;2024-03-23T02:17:12;6.50;59.60
80216;DHT22;69532;37.974;23.708;2024-03-23T02:19:38;6.40;58.80
80216;DHT22;69532;37.974;23.708;2024-03-23T02:22:05;6.30;59.30
80216;DHT22;69532;37.974;23.708;2024-03-23T02:24:31;6.30;59.50
80216;DHT22;69532;37.974;23.708;2024-03-23T02:26:57;6.30;59.50
80216;DHT22;69532;37.974;23.708;2024-03-23T02:29:23;6.30;59.60
80216;DHT22;69532;37.974;23.708;2024-03-23T02:31:49;6.40;59.30
80216;DHT22;69532;37.974;23.708;2024-03-23T02:34:15;6.40;59.00
80216;DHT22;69532;37.974;23.708;2024-03-23T02:36:41;6.40;59.10
80216;DHT22;69532;37.974;23.708;2024-03-23T02:39:07;6.40;59.00
80216;DHT22;69532;37.974;23.708;2024-03-23T02:41:33;6.40;59.10
80216;DHT22;69532;37.974;23.708;2024-03-23T02:44:00;6.30;59.30
80216;DHT22;69532;37.974;23.708;2024-03-23T02:46:26;6.30;59.50
80216;DHT22;69532;37.974;23.708;2024-03-23T02:48:52;6.30;59.50
80216;DHT22;69532;37.974;23.708;2024-03-23T02:51:18;6.50;58.60
80216;DHT22;69532;37.974;23.708;2024-03-23T02:53:44;6.50;58.60
80216;DHT22;69532;37.974;23.708;2024-03-23T02:56:10;6.50;58.80
80216;DHT22;69532;37.974;23.708;2024-03-23T02:58:42;6.50;58.60
80216;DHT22;69532;37.974;23.708;2024-03-23T03:01:08;6.40;59.30
80216;DHT22;69532;37.974;23.708;2024-03-23T03:03:34;6.30;60.00
80216;DHT22;69532;37.974;23.708;2024-03-23T03:06:00;6.00;61.10
80216;DHT22;69532;37.974;23.708;2024-03-23T03:08:28;6.00;61.30
80216;DHT22;69532;37.974;23.708;2024-03-23T03:10:54;5.90;61.20
80216;DHT22;69532;37.974;23.708;2024-03-23T03:13:20;6.00;61.20
80216;DHT22;69532;37.974;23.708;2024-03-23T03:15:46;6.20;60.60
80216;DHT22;69532;37.974;23.708;2024-03-23T03:18:13;6.00;61.70
80216;DHT22;69532;37.974;23.708;2024-03-23T03:20:39;5.90;61.20
80216;DHT22;69532;37.974;23.708;2024-03-23T03:23:06;5.90;61.60
80216;DHT22;69532;37.974;23.708;2024-03-23T03:25:33;5.90;61.60
80216;DHT22;69532;37.974;23.708;2024-03-23T03:27:59;6.00;61.00
80216;DHT22;69532;37.974;23.708;2024-03-23T03:30:25;5.90;60.80
80216;DHT22;69532;37.974;23.708;2024-03-23T03:32:53;5.50;62.20
80216;DHT22;69532;37.974;23.708;2024-03-23T03:35:20;5.60;62.60
80216;DHT22;69532;37.974;23.708;2024-03-23T03:37:46;5.60;62.40
80216;DHT22;69532;37.974;23.708;2024-03-23T03:40:12;5.50;62.50
80216;DHT22;69532;37.974;23.708;2024-03-23T03:42:41;5.40;62.60
80216;DHT22;69532;37.974;23.708;2024-03-23T03:45:07;5.30;63.20
80216;DHT22;69532;37.974;23.708;2024-03-23T03:47:33;5.10;63.70
80216;DHT22;69532;37.974;23.708;2024-03-23T03:50:00;4.90;64.40
80216;DHT22;69532;37.974;23.708;2024-03-23T03:52:26;4.80;65.00
80216;DHT22;69532;37.974;23.708;2024-03-23T03:55:01;4.70;65.30
80216;DHT22;69532;37.974;23.708;2024-03-23T03:57:28;4.70;65.20
80216;DHT22;69532;37.974;23.708;2024-03-23T03:59:54;5.00;64.30
80216;DHT22;69532;37.974;23.708;2024-03-23T04:02:20;5.10;63.40
80216;DHT22;69532;37.974;23.708;2024-03-23T04:04:46;5.30;63.40
80216;DHT22;69532;37.974;23.708;2024-03-23T04:07:13;5.30;60.70
80216;DHT22;69532;37.974;23.708;2024-03-23T04:09:39;5.20;61.80
80216;DHT22;69532;37.974;23.708;2024-03-23T04:12:06;5.10;62.50
80216;DHT22;69532;37.974;23.708;2024-03-23T04:14:32;4.80;63.30
80216;DHT22;69532;37.974;23.708;2024-03-23T04:16:58;4.50;64.40
80216;DHT22;69532;37.974;23.708;2024-03-23T04:19:25;4.60;64.50
80216;DHT22;69532;37.974;23.708;2024-03-23T04:21:51;4.50;64.60
80216;DHT22;69532;37.974;23.708;2024-03-23T04:24:17;4.50;64.90
80216;DHT22;69532;37.974;23.708;2024-03-23T04:26:45;4.60;64.50
80216;DHT22;69532;37.974;23.708;2024-03-23T04:29:11;4.30;65.20
80216;DHT22;69532;37.974;23.708;2024-03-23T04:31:38;4.20;65.90
80216;DHT22;69532;37.974;23.708;2024-03-23T04:34:04;4.10;66.10
80216;DHT22;69532;37.974;23.708;2024-03-23T04:36:31;4.10;66.40
80216;DHT22;69532;37.974;23.708;2024-03-23T04:38:59;4.00;66.70
80216;DHT22;69532;37.974;23.708;2024-03-23T04:41:25;3.90;66.90
80216;DHT22;69532;37.974;23.708;2024-03-23T04:43:52;3.90;66.90
80216;DHT22;69532;37.974;23.708;2024-03-23T04:46:18;4.00;66.60
80216;DHT22;69532;37.974;23.708;2024-03-23T04:48:44;4.00;66.30
80216;DHT22;69532;37.974;23.708;2024-03-23T04:51:10;4.20;65.80
80216;DHT22;69532;37.974;23.708;2024-03-23T04:53:39;4.50;64.60
80216;DHT22;69532;37.974;23.708;2024-03-23T04:56:05;4.50;64.20
80216;DHT22;69532;37.974;23.708;2024-03-23T04:58:31;4.50;63.70
80216;DHT22;69532;37.974;23.708;2024-03-23T05:00:57;4.50;64.30
80216;DHT22;69532;37.974;23.708;2024-03-23T05:03:24;4.50;64.30
80216;DHT22;69532;37.974;23.708;2024-03-23T05:05:50;4.50;64.20
80216;DHT22;69532;37.974;23.708;2024-03-23T05:08:16;4.60;63.70
80216;DHT22;69532;37.974;23.708;2024-03-23T05:10:43;4.80;63.30
80216;DHT22;69532;37.974;23.708;2024-03-23T05:13:09;4.80;62.80
80216;DHT22;69532;37.974;23.708;2024-03-23T05:15:36;4.80;62.90
80216;DHT22;69532;37.974;23.708;2024-03-23T05:18:02;5.00;62.50
80216;DHT22;69532;37.974;23.708;2024-03-23T05:20:28;5.30;61.50
80216;DHT22;69532;37.974;23.708;2024-03-23T05:22:55;5.40;60.80
80216;DHT22;69532;37.974;23.708;2024-03-23T05:25:21;5.60;60.10
80216;DHT22;69532;37.974;23.708;2024-03-23T05:27:48;5.10;61.00
80216;DHT22;69532;37.974;23.708;2024-03-23T05:30:15;5.40;60.70
80216;DHT22;69532;37.974;23.708;2024-03-23T05:32:41;5.60;59.90
80216;DHT22;69532;37.974;23.708;2024-03-23T05:35:09;5.90;58.90
80216;DHT22;69532;37.974;23.708;2024-03-23T05:37:35;5.70;57.70
80216;DHT22;69532;37.974;23.708;2024-03-23T05:40:03;5.40;60.30
80216;DHT22;69532;37.974;23.708;2024-03-23T05:42:30;5.20;60.60
80216;DHT22;69532;37.974;23.708;2024-03-23T05:44:56;5.30;60.50
80216;DHT22;69532;37.974;23.708;2024-03-23T05:47:22;5.60;59.80
80216;DHT22;69532;37.974;23.708;2024-03-23T05:49:48;5.60;59.20
80216;DHT22;69532;37.974;23.708;2024-03-23T05:52:14;5.90;58.60
80216;DHT22;69532;37.974;23.708;2024-03-23T05:54:40;6.10;57.70
80216;DHT22;69532;37.974;23.708;2024-03-23T05:57:06;6.50;56.50
80216;DHT22;69532;37.974;23.708;2024-03-23T05:59:35;6.40;55.90
80216;DHT22;69532;37.974;23.708;2024-03-23T06:02:01;6.60;55.80
80216;DHT22;69532;37.974;23.708;2024-03-23T06:04:29;6.70;55.30
80216;DHT22;69532;37.974;23.708;2024-03-23T06:06:55;7.00;54.30
80216;DHT22;69532;37.974;23.708;2024-03-23T06:09:23;7.30;53.30
80216;DHT22;69532;37.974;23.708;2024-03-23T06:11:49;7.40;52.90
80216;DHT22;69532;37.974;23.708;2024-03-23T06:14:16;7.50;52.80
80216;DHT22;69532;37.974;23.708;2024-03-23T06:16:42;7.40;52.80
80216;DHT22;69532;37.974;23.708;2024-03-23T06:19:08;7.50;52.80
80216;DHT22;69532;37.974;23.708;2024-03-23T06:21:34;7.60;52.20
80216;DHT22;69532;37.974;23.708;2024-03-23T06:24:00;7.60;51.90
80216;DHT22;69532;37.974;23.708;2024-03-23T06:26:26;7.50;52.70
80216;DHT22;69532;37.974;23.708;2024-03-23T06:28:52;7.70;52.20
80216;DHT22;69532;37.974;23.708;2024-03-23T06:31:18;7.80;51.90
80216;DHT22;69532;37.974;23.708;2024-03-23T06:33:45;8.00;51.20
80216;DHT22;69532;37.974;23.708;2024-03-23T06:36:11;8.00;51.10
80216;DHT22;69532;37.974;23.708;2024-03-23T06:38:38;7.70;51.20
80216;DHT22;69532;37.974;23.708;2024-03-23T06:41:07;7.90;51.30
80216;DHT22;69532;37.974;23.708;2024-03-23T06:43:33;8.20;50.70
80216;DHT22;69532;37.974;23.708;2024-03-23T06:46:00;8.30;50.00
80216;DHT22;69532;37.974;23.708;2024-03-23T06:48:26;8.40;49.90
80216;DHT22;69532;37.974;23.708;2024-03-23T06:50:58;8.60;49.30
80216;DHT22;69532;37.974;23.708;2024-03-23T06:53:24;8.70;49.10
80216;DHT22;69532;37.974;23.708;2024-03-23T06:55:52;8.80;48.40
80216;DHT22;69532;37.974;23.708;2024-03-23T06:58:23;9.10;48.90
80216;DHT22;69532;37.974;23.708;2024-03-23T07:00:50;9.20;46.70
80216;DHT22;69532;37.974;23.708;2024-03-23T07:03:19;9.10;47.10
80216;DHT22;69532;37.974;23.708;2024-03-23T07:05:45;9.20;47.10
80216;DHT22;69532;37.974;23.708;2024-03-23T07:08:12;9.40;46.70
80216;DHT22;69532;37.974;23.708;2024-03-23T07:10:41;9.70;46.00
80216;DHT22;69532;37.974;23.708;2024-03-23T07:13:07;9.70;45.80
80216;DHT22;69532;37.974;23.708;2024-03-23T07:15:34;9.80;45.40
80216;DHT22;69532;37.974;23.708;2024-03-23T07:18:00;9.80;45.20
80216;DHT22;69532;37.974;23.708;2024-03-23T07:20:26;9.90;45.00
80216;DHT22;69532;37.974;23.708;2024-03-23T07:22:52;10.10;44.40
80216;DHT22;69532;37.974;23.708;2024-03-23T07:25:19;10.20;43.50
80216;DHT22;69532;37.974;23.708;2024-03-23T07:27:46;10.20;44.00
80216;DHT22;69532;37.974;23.708;2024-03-23T07:30:12;10.30;43.80
80216;DHT22;69532;37.974;23.708;2024-03-23T07:32:38;10.10;44.20
80216;DHT22;69532;37.974;23.708;2024-03-23T07:35:05;10.00;44.70
80216;DHT22;69532;37.974;23.708;2024-03-23T07:37:31;10.20;43.90
80216;DHT22;69532;37.974;23.708;2024-03-23T07:39:57;10.10;43.90
80216;DHT22;69532;37.974;23.708;2024-03-23T07:42:24;10.30;43.70
80216;DHT22;69532;37.974;23.708;2024-03-23T07:44:52;10.10;43.60
80216;DHT22;69532;37.974;23.708;2024-03-23T07:47:20;10.00;43.80
80216;DHT22;69532;37.974;23.708;2024-03-23T07:49:47;9.80;44.20
80216;DHT22;69532;37.974;23.708;2024-03-23T07:52:13;9.70;44.80
80216;DHT22;69532;37.974;23.708;2024-03-23T07:54:39;9.70;44.40
80216;DHT22;69532;37.974;23.708;2024-03-23T07:57:05;9.80;44.70
80216;DHT22;69532;37.974;23.708;2024-03-23T07:59:32;10.10;44.20
80216;DHT22;69532;37.974;23.708;2024-03-23T08:02:00;10.20;43.40
80216;DHT22;69532;37.974;23.708;2024-03-23T08:04:27;10.20;43.40
80216;DHT22;69532;37.974;23.708;2024-03-23T08:06:53;10.50;43.20
80216;DHT22;69532;37.974;23.708;2024-03-23T08:09:20;10.80;42.80
80216;DHT22;69532;37.974;23.708;2024-03-23T08:11:46;10.90;41.80
80216;DHT22;69532;37.974;23.708;2024-03-23T08:14:12;10.90;42.60
80216;DHT22;69532;37.974;23.708;2024-03-23T08:16:39;11.20;41.40
80216;DHT22;69532;37.974;23.708;2024-03-23T08:19:05;11.40;41.00
80216;DHT22;69532;37.974;23.708;2024-03-23T08:21:31;11.60;40.40
80216;DHT22;69532;37.974;23.708;2024-03-23T08:23:57;11.70;39.70
80216;DHT22;69532;37.974;23.708;2024-03-23T08:26:23;11.80;39.60
80216;DHT22;69532;37.974;23.708;2024-03-23T08:28:49;12.00;39.20
80216;DHT22;69532;37.974;23.708;2024-03-23T08:31:15;12.10;38.50
80216;DHT22;69532;37.974;23.708;2024-03-23T08:33:41;12.20;38.50
80216;DHT22;69532;37.974;23.708;2024-03-23T08:36:11;12.30;38.50
80216;DHT22;69532;37.974;23.708;2024-03-23T08:38:40;12.60;37.10
80216;DHT22;69532;37.974;23.708;2024-03-23T08:41:08;12.90;36.30
80216;DHT22;69532;37.974;23.708;2024-03-23T08:43:39;13.00;35.90
80216;DHT22;69532;37.974;23.708;2024-03-23T08:46:12;13.00;36.20
80216;DHT22;69532;37.974;23.708;2024-03-23T08:48:40;13.00;36.00
80216;DHT22;69532;37.974;23.708;2024-03-23T08:51:08;13.10;35.30
80216;DHT22;69532;37.974;23.708;2024-03-23T08:53:38;13.20;35.00
80216;DHT22;69532;37.974;23.708;2024-03-23T08:56:05;13.40;34.80
80216;DHT22;69532;37.974;23.708;2024-03-23T08:58:35;13.60;33.90
80216;DHT22;69532;37.974;23.708;2024-03-23T09:01:08;13.40;33.20
80216;DHT22;69532;37.974;23.708;2024-03-23T09:03:34;13.50;33.40
80216;DHT22;69532;37.974;23.708;2024-03-23T09:06:08;13.60;33.60
80216;DHT22;69532;37.974;23.708;2024-03-23T09:08:34;13.70;33.70
80216;DHT22;69532;37.974;23.708;2024-03-23T09:11:09;14.00;33.20
80216;DHT22;69532;37.974;23.708;2024-03-23T09:13:36;14.10;33.00
80216;DHT22;69532;37.974;23.708;2024-03-23T09:16:03;14.00;32.60
80216;DHT22;69532;37.974;23.708;2024-03-23T09:18:33;14.10;32.20
80216;DHT22;69532;37.974;23.708;2024-03-23T09:21:00;14.20;33.60
80216;DHT22;69532;37.974;23.708;2024-03-23T09:23:26;14.10;32.70
80216;DHT22;69532;37.974;23.708;2024-03-23T09:25:52;14.30;32.50
80216;DHT22;69532;37.974;23.708;2024-03-23T09:28:18;14.40;32.00
80216;DHT22;69532;37.974;23.708;2024-03-23T09:30:44;14.50;31.40
80216;DHT22;69532;37.974;23.708;2024-03-23T09:33:11;14.60;30.90
80216;DHT22;69532;37.974;23.708;2024-03-23T09:35:42;14.80;31.20
80216;DHT22;69532;37.974;23.708;2024-03-23T09:38:08;14.90;31.00
80216;DHT22;69532;37.974;23.708;2024-03-23T09:40:41;14.90;30.80
80216;DHT22;69532;37.974;23.708;2024-03-23T09:43:08;14.90;31.20
80216;DHT22;69532;37.974;23.708;2024-03-23T09:45:39;15.00;30.60
80216;DHT22;69532;37.974;23.708;2024-03-23T09:48:07;15.10;30.80
80216;DHT22;69532;37.974;23.708;2024-03-23T09:50:34;15.10;31.40
80216;DHT22;69532;37.974;23.708;2024-03-23T09:53:00;15.20;31.00
80216;DHT22;69532;37.974;23.708;2024-03-23T09:55:27;15.10;31.60
80216;DHT22;69532;37.974;23.708;2024-03-23T09:57:53;15.30;31.90
80216;DHT22;69532;37.974;23.708;2024-03-23T10:00:19;15.50;31.30
80216;DHT22;69532;37.974;23.708;2024-03-23T10:02:45;15.40;31.10
80216;DHT22;69532;37.974;23.708;2024-03-23T10:05:23;15.60;31.70
80216;DHT22;69532;37.974;23.708;2024-03-23T10:07:50;15.70;31.90
80216;DHT22;69532;37.974;23.708;2024-03-23T10:10:17;15.90;32.20
80216;DHT22;69532;37.974;23.708;2024-03-23T10:12:47;15.90;30.90
80216;DHT22;69532;37.974;23.708;2024-03-23T10:15:25;15.80;31.00
80216;DHT22;69532;37.974;23.708;2024-03-23T10:17:52;15.80;30.70
80216;DHT22;69532;37.974;23.708;2024-03-23T10:20:24;16.00;30.20
80216;DHT22;69532;37.974;23.708;2024-03-23T10:22:50;16.20;29.70
80216;DHT22;69532;37.974;23.708;2024-03-23T10:25:23;16.40;29.90
80216;DHT22;69532;37.974;23.708;2024-03-23T10:27:59;16.50;30.10
80216;DHT22;69532;37.974;23.708;2024-03-23T10:30:26;16.60;30.00
80216;DHT22;69532;37.974;23.708;2024-03-23T10:35:36;16.80;28.50
80216;DHT22;69532;37.974;23.708;2024-03-23T10:38:05;17.00;28.70
80216;DHT22;69532;37.974;23.708;2024-03-23T10:40:31;17.10;29.10
80216;DHT22;69532;37.974;23.708;2024-03-23T10:43:00;17.30;28.40
80216;DHT22;69532;37.974;23.708;2024-03-23T10:45:28;17.50;27.80
80216;DHT22;69532;37.974;23.708;2024-03-23T10:47:54;17.70;27.10
80216;DHT22;69532;37.974;23.708;2024-03-23T10:50:21;17.80;26.30
80216;DHT22;69532;37.974;23.708;2024-03-23T10:52:47;17.80;26.30
80216;DHT22;69532;37.974;23.708;2024-03-23T10:55:17;17.80;26.70
80216;DHT22;69532;37.974;23.708;2024-03-23T10:57:49;17.80;27.30
80216;DHT22;69532;37.974;23.708;2024-03-23T11:00:17;17.80;27.40
80216;DHT22;69532;37.974;23.708;2024-03-23T11:02:43;18.00;27.40
80216;DHT22;69532;37.974;23.708;2024-03-23T11:05:28;18.20;26.50
80216;DHT22;69532;37.974;23.708;2024-03-23T11:07:54;18.40;26.70
80216;DHT22;69532;37.974;23.708;2024-03-23T11:10:33;18.70;25.70
80216;DHT22;69532;37.974;23.708;2024-03-23T11:13:21;19.00;25.40
80216;DHT22;69532;37.974;23.708;2024-03-23T11:15:47;19.20;25.70
80216;DHT22;69532;37.974;23.708;2024-03-23T11:18:20;19.50;25.00
80216;DHT22;69532;37.974;23.708;2024-03-23T11:20:47;19.90;24.60
80216;DHT22;69532;37.974;23.708;2024-03-23T11:23:27;20.20;23.60
80216;DHT22;69532;37.974;23.708;2024-03-23T11:25:54;20.70;22.60
80216;DHT22;69532;37.974;23.708;2024-03-23T11:28:20;21.20;21.80
80216;DHT22;69532;37.974;23.708;2024-03-23T11:30:47;21.40;22.00
80216;DHT22;69532;37.974;23.708;2024-03-23T11:33:14;21.90;21.60
80216;DHT22;69532;37.974;23.708;2024-03-23T11:35:41;22.60;20.40
80216;DHT22;69532;37.974;23.708;2024-03-23T11:38:14;22.90;20.20
80216;DHT22;69532;37.974;23.708;2024-03-23T11:40:45;23.90;19.00
80216;DHT22;69532;37.974;23.708;2024-03-23T11:43:16;25.30;17.80
80216;DHT22;69532;37.974;23.708;2024-03-23T11:45:50;26.80;16.80
80216;DHT22;69532;37.974;23.708;2024-03-23T11:48:19;28.60;15.40
80216;DHT22;69532;37.974;23.708;2024-03-23T11:50:47;30.40;14.00
80216;DHT22;69532;37.974;23.708;2024-03-23T11:55:47;34.30;11.30
80216;DHT22;69532;37.974;23.708;2024-03-23T11:58:14;36.00;9.80
80216;DHT22;69532;37.974;23.708;2024-03-23T12:00:41;37.60;8.80
80216;DHT22;69532;37.974;23.708;2024-03-23T12:03:08;39.10;7.80
80216;DHT22;69532;37.974;23.708;2024-03-23T12:05:37;40.30;7.10
80216;DHT22;69532;37.974;23.708;2024-03-23T12:08:20;41.60;6.20
80216;DHT22;69532;37.974;23.708;2024-03-23T12:11:09;42.40;5.70
80216;DHT22;69532;37.974;23.708;2024-03-23T12:13:38;43.10;5.00
80216;DHT22;69532;37.974;23.708;2024-03-23T12:16:19;43.40;4.60
80216;DHT22;69532;37.974;23.708;2024-03-23T12:18:47;44.20;4.30
80216;DHT22;69532;37.974;23.708;2024-03-23T12:21:15;45.10;3.90
80216;DHT22;69532;37.974;23.708;2024-03-23T12:23:41;45.50;3.50
80216;DHT22;69532;37.974;23.708;2024-03-23T12:26:11;45.40;3.30
80216;DHT22;69532;37.974;23.708;2024-03-23T12:28:38;46.00;3.50
80216;DHT22;69532;37.974;23.708;2024-03-23T12:31:04;46.80;3.20
80216;DHT22;69532;37.974;23.708;2024-03-23T12:33:31;47.40;2.80
80216;DHT22;69532;37.974;23.708;2024-03-23T12:35:57;47.50;2.60
80216;DHT22;69532;37.974;23.708;2024-03-23T12:38:24;47.70;2.50
80216;DHT22;69532;37.974;23.708;2024-03-23T12:40:50;48.00;3.30
80216;DHT22;69532;37.974;23.708;2024-03-23T12:43:17;48.00;2.50
80216;DHT22;69532;37.974;23.708;2024-03-23T12:45:50;48.70;2.40
80216;DHT22;69532;37.974;23.708;2024-03-23T12:48:16;49.10;2.00
80216;DHT22;69532;37.974;23.708;2024-03-23T12:50:43;49.20;1.60
80216;DHT22;69532;37.974;23.708;2024-03-23T12:53:09;48.70;1.50
80216;DHT22;69532;37.974;23.708;2024-03-23T12:55:35;48.40;1.50
80216;DHT22;69532;37.974;23.708;2024-03-23T12:58:01;47.90;1.50
80216;DHT22;69532;37.974;23.708;2024-03-23T13:00:28;47.80;1.60
80216;DHT22;69532;37.974;23.708;2024-03-23T13:02:54;47.60;1.60
80216;DHT22;69532;37.974;23.708;2024-03-23T13:05:20;47.60;1.90
80216;DHT22;69532;37.974;23.708;2024-03-23T13:07:46;47.70;1.80
80216;DHT22;69532;37.974;23.708;2024-03-23T13:10:12;48.00;1.80
80216;DHT22;69532;37.974;23.708;2024-03-23T13:12:39;48.20;1.60
80216;DHT22;69532;37.974;23.708;2024-03-23T13:15:05;48.20;1.30
80216;DHT22;69532;37.974;23.708;2024-03-23T13:17:31;48.50;1.50
80216;DHT22;69532;37.974;23.708;2024-03-23T13:19:58;48.90;1.10
80216;DHT22;69532;37.974;23.708;2024-03-23T13:22:24;49.20;1.00
80216;DHT22;69532;37.974;23.708;2024-03-23T13:24:50;49.30;1.00
80216;DHT22;69532;37.974;23.708;2024-03-23T13:27:16;49.60;1.00
80216;DHT22;69532;37.974;23.708;2024-03-23T13:29:42;49.70;1.00
80216;DHT22;69532;37.974;23.708;2024-03-23T13:32:08;49.70;1.00
80216;DHT22;69532;37.974;23.708;2024-03-23T13:34:35;49.50;1.00
80216;DHT22;69532;37.974;23.708;2024-03-23T13:37:01;49.50;1.00
80216;DHT22;69532;37.974;23.708;2024-03-23T13:39:28;49.50;1.00
80216;DHT22;69532;37.974;23.708;2024-03-23T13:41:54;49.30;1.00
80216;DHT22;69532;37.974;23.708;2024-03-23T13:44:23;49.30;1.10
80216;DHT22;69532;37.974;23.708;2024-03-23T13:46:49;49.20;1.20
80216;DHT22;69532;37.974;23.708;2024-03-23T13:49:28;49.10;1.00
80216;DHT22;69532;37.974;23.708;2024-03-23T13:51:55;48.80;1.00
80216;DHT22;69532;37.974;23.708;2024-03-23T13:54:21;48.50;1.00
80216;DHT22;69532;37.974;23.708;2024-03-23T13:56:49;48.20;1.20
80216;DHT22;69532;37.974;23.708;2024-03-23T13:59:15;48.10;1.00
80216;DHT22;69532;37.974;23.708;2024-03-23T14:01:41;47.80;1.00
80216;DHT22;69532;37.974;23.708;2024-03-23T14:04:08;47.60;1.10
80216;DHT22;69532;37.974;23.708;2024-03-23T14:06:34;46.90;1.00
80216;DHT22;69532;37.974;23.708;2024-03-23T14:09:00;47.00;1.40
80216;DHT22;69532;37.974;23.708;2024-03-23T14:11:26;46.80;1.40
80216;DHT22;69532;37.974;23.708;2024-03-23T14:13:54;46.80;1.40
80216;DHT22;69532;37.974;23.708;2024-03-23T14:16:20;46.50;1.30
80216;DHT22;69532;37.974;23.708;2024-03-23T14:18:47;46.20;1.50
80216;DHT22;69532;37.974;23.708;2024-03-23T14:21:13;46.40;1.60
80216;DHT22;69532;37.974;23.708;2024-03-23T14:23:39;46.20;1.60
80216;DHT22;69532;37.974;23.708;2024-03-23T14:26:09;46.10;1.70
80216;DHT22;69532;37.974;23.708;2024-03-23T14:28:35;45.50;2.10
80216;DHT22;69532;37.974;23.708;2024-03-23T14:31:01;44.60;2.60
80216;DHT22;69532;37.974;23.708;2024-03-23T14:33:29;44.60;2.70
80216;DHT22;69532;37.974;23.708;2024-03-23T14:35:55;44.30;2.90
80216;DHT22;69532;37.974;23.708;2024-03-23T14:38:23;44.00;3.00
80216;DHT22;69532;37.974;23.708;2024-03-23T14:40:49;43.80;3.20
80216;DHT22;69532;37.974;23.708;2024-03-23T14:43:17;43.90;3.30
80216;DHT22;69532;37.974;23.708;2024-03-23T14:48:39;43.20;2.90
80216;DHT22;69532;37.974;23.708;2024-03-23T14:51:06;42.80;3.00
80216;DHT22;69532;37.974;23.708;2024-03-23T14:53:36;42.50;3.00
80216;DHT22;69532;37.974;23.708;2024-03-23T14:56:02;42.30;3.00
80216;DHT22;69532;37.974;23.708;2024-03-23T14:58:29;41.90;3.20
80216;DHT22;69532;37.974;23.708;2024-03-23T15:01:06;41.90;2.90
80216;DHT22;69532;37.974;23.708;2024-03-23T15:03:39;41.80;2.80
80216;DHT22;69532;37.974;23.708;2024-03-23T15:06:06;41.50;2.50
80216;DHT22;69532;37.974;23.708;2024-03-23T15:08:35;40.70;2.60
80216;DHT22;69532;37.974;23.708;2024-03-23T15:11:02;40.10;2.80
80216;DHT22;69532;37.974;23.708;2024-03-23T15:13:38;39.50;3.60
80216;DHT22;69532;37.974;23.708;2024-03-23T15:16:05;39.50;4.30
80216;DHT22;69532;37.974;23.708;2024-03-23T15:18:34;39.60;4.40
80216;DHT22;69532;37.974;23.708;2024-03-23T15:21:03;39.50;4.50
80216;DHT22;69532;37.974;23.708;2024-03-23T15:23:33;39.30;4.80
80216;DHT22;69532;37.974;23.708;2024-03-23T15:26:01;39.00;4.60
80216;DHT22;69532;37.974;23.708;2024-03-23T15:28:28;38.90;5.00
80216;DHT22;69532;37.974;23.708;2024-03-23T15:31:04;38.80;5.00
80216;DHT22;69532;37.974;23.708;2024-03-23T15:33:30;38.40;5.10
80216;DHT22;69532;37.974;23.708;2024-03-23T15:36:00;38.10;5.20
80216;DHT22;69532;37.974;23.708;2024-03-23T15:38:26;37.70;5.40
80216;DHT22;69532;37.974;23.708;2024-03-23T15:40:53;37.30;5.40
80216;DHT22;69532;37.974;23.708;2024-03-23T15:43:19;36.90;5.40
80216;DHT22;69532;37.974;23.708;2024-03-23T15:45:54;36.40;5.40
80216;DHT22;69532;37.974;23.708;2024-03-23T15:48:21;35.80;6.00
80216;DHT22;69532;37.974;23.708;2024-03-23T15:50:51;35.40;6.10
80216;DHT22;69532;37.974;23.708;2024-03-23T15:53:19;34.90;6.10
80216;DHT22;69532;37.974;23.708;2024-03-23T15:55:53;34.50;6.10
80216;DHT22;69532;37.974;23.708;2024-03-23T15:58:19;33.40;6.50
80216;DHT22;69532;37.974;23.708;2024-03-23T16:01:01;32.00;7.20
80216;DHT22;69532;37.974;23.708;2024-03-23T16:03:28;30.50;8.70
80216;DHT22;69532;37.974;23.708;2024-03-23T16:05:55;28.80;8.90
80216;DHT22;69532;37.974;23.708;2024-03-23T16:08:23;27.30;9.60
80216;DHT22;69532;37.974;23.708;2024-03-23T16:10:50;26.40;10.50
80216;DHT22;69532;37.974;23.708;2024-03-23T16:13:16;25.50;11.60
80216;DHT22;69532;37.974;23.708;2024-03-23T16:15:53;24.60;12.40
80216;DHT22;69532;37.974;23.708;2024-03-23T16:18:20;23.70;13.50
80216;DHT22;69532;37.974;23.708;2024-03-23T16:21:12;22.90;14.70
80216;DHT22;69532;37.974;23.708;2024-03-23T16:23:39;22.30;15.60
80216;DHT22;69532;37.974;23.708;2024-03-23T16:26:07;21.80;16.40
80216;DHT22;69532;37.974;23.708;2024-03-23T16:28:35;21.40;16.90